Time;durP1;ratioP1;P1;durP2;ratioP2;P2;SDS_P1;SDS_P2;PMS_P1;PMS_P2;Temp;Humidity;BMP_temperature;BMP_pressure;BME280_temperature;BME280_humidity;BME280_pressure;Samples;Min_cycle;Max_cycle;Signal;HPM_P1;HPM_P2
2023/01/10 00:00:56;;;;;;;14.93;3.53;;;;;;;4.71;100.00;101129.91;5227719;28;20420;-70
2023/01/10 00:03:28;;;;;;;18.87;6.37;;;;;;;4.76;100.00;101146.16;5226318;28;20109;-70
2023/01/10 00:05:59;;;;;;;17.40;3.53;;;;;;;4.75;100.00;101162.63;5223958;28;20025;-70
2023/01/10 00:08:30;;;;;;;15.37;4.07;;;;;;;4.72;100.00;101168.78;5227402;28;20033;-70
2023/01/10 00:13:22;;;;;;;15.57;3.80;;;;;;;4.76;100.00;101169.53;5227346;28;20021;-70
2023/01/10 00:13:54;;;;;;;15.00;4.60;;;;;;;4.73;100.00;101174.78;5227965;28;20636;-71
2023/01/10 00:16:25;;;;;;;13.70;4.23;;;;;;;4.70;100.00;101185.25;5224041;28;20049;-71
2023/01/10 00:18:56;;;;;;;23.27;3.83;;;;;;;4.71;100.00;101193.00;5226405;28;20100;-71
2023/01/10 00:21:29;;;;;;;14.97;3.90;;;;;;;4.56;100.00;101189.13;5223338;28;20124;-70
2023/01/10 00:24:15;;;;;;;14.33;3.33;;;;;;;4.56;100.00;101180.47;5224566;28;20021;-70
2023/01/10 00:26:51;;;;;;;14.17;4.13;;;;;;;4.65;100.00;101202.72;5227168;28;20029;-70
2023/01/10 00:29:28;;;;;;;14.63;3.97;;;;;;;4.64;100.00;101208.81;5228895;28;20163;-70
2023/01/10 00:31:59;;;;;;;15.30;4.27;;;;;;;4.59;100.00;101220.16;5228138;28;20037;-70
2023/01/10 00:34:31;;;;;;;20.83;5.40;;;;;;;4.45;100.00;101202.38;5226361;28;20075;-71
2023/01/10 00:37:02;;;;;;;16.20;5.00;;;;;;;4.61;100.00;101227.88;5226852;28;20087;-70
2023/01/10 00:39:34;;;;;;;14.63;4.07;;;;;;;4.58;100.00;101225.38;5227474;28;20731;-70
2023/01/10 00:44:55;;;;;;;20.00;5.03;;;;;;;4.47;100.00;101234.31;5225797;28;20128;-71
2023/01/10 00:47:27;;;;;;;17.47;4.60;;;;;;;4.49;100.00;101234.28;5227270;28;20018;-71
2023/01/10 00:49:58;;;;;;;19.03;4.47;;;;;;;4.44;100.00;101223.19;5225376;28;21012;-71
2023/01/10 00:52:29;;;;;;;15.53;4.33;;;;;;;4.36;100.00;101224.25;5227827;28;20045;-70
2023/01/10 00:55:00;;;;;;;11.93;3.93;;;;;;;4.39;100.00;101238.03;5227654;28;20818;-70
2023/01/10 00:57:32;;;;;;;15.80;4.57;;;;;;;4.31;100.00;101231.28;5226347;28;20480;-71
2023/01/10 01:00:07;;;;;;;19.37;5.10;;;;;;;4.36;100.00;101237.22;5228653;28;20492;-71
2023/01/10 01:02:39;;;;;;;18.40;4.90;;;;;;;4.34;100.00;101240.75;5228047;28;20038;-71
2023/01/10 01:05:10;;;;;;;20.67;5.97;;;;;;;4.36;100.00;101244.16;5227285;28;20022;-70
2023/01/10 01:07:41;;;;;;;17.07;4.93;;;;;;;4.33;100.00;101237.28;5227989;28;20041;-71
2023/01/10 01:10:25;;;;;;;14.13;4.30;;;;;;;4.33;100.00;101245.06;5226659;28;20029;-70
2023/01/10 01:13:15;;;;;;;19.23;5.73;;;;;;;4.34;100.00;101241.59;5226329;28;20507;-70
2023/01/10 01:15:47;;;;;;;13.97;4.80;;;;;;;4.31;100.00;101257.22;5223243;28;20053;-70
2023/01/10 01:18:20;;;;;;;19.90;5.20;;;;;;;4.29;100.00;101269.41;5225805;28;20107;-70
2023/01/10 01:20:55;;;;;;;19.63;7.10;;;;;;;4.28;100.00;101272.88;5226616;28;20068;-70
2023/01/10 01:23:26;;;;;;;20.35;7.82;;;;;;;4.30;100.00;101276.28;5227654;28;20120;-70
2023/01/10 01:25:58;;;;;;;23.33;9.03;;;;;;;4.31;100.00;101280.56;5227051;28;20616;-70
2023/01/10 01:28:29;;;;;;;21.50;9.07;;;;;;;4.31;100.00;101279.75;5225500;28;20048;-70
2023/01/10 01:31:06;;;;;;;23.47;10.37;;;;;;;4.32;100.00;101284.88;5227641;28;20033;-70
2023/01/10 01:33:37;;;;;;;19.53;8.73;;;;;;;4.24;100.00;101276.47;5225487;28;20037;-70
2023/01/10 01:36:10;;;;;;;21.07;8.53;;;;;;;4.28;100.00;101287.56;5225866;28;20025;-70
2023/01/10 01:38:42;;;;;;;26.97;8.00;;;;;;;4.20;100.00;101277.41;5226822;28;20041;-70
2023/01/10 01:44:06;;;;;;;24.57;8.20;;;;;;;4.28;100.00;101304.00;5225804;28;20057;-70
2023/01/10 01:46:40;;;;;;;25.58;7.80;;;;;;;4.25;100.00;101298.88;5222973;28;20041;-70
2023/01/10 01:49:17;;;;;;;22.25;7.63;;;;;;;4.29;100.00;101305.72;5222509;28;20044;-70
2023/01/10 01:51:55;;;;;;;25.10;6.10;;;;;;;4.19;100.00;101299.06;5225826;28;20034;-71
2023/01/10 01:54:29;;;;;;;18.87;7.43;;;;;;;4.27;100.00;101309.22;5232687;28;21076;-70
2023/01/10 01:57:13;;;;;;;21.17;7.57;;;;;;;4.28;100.00;101311.78;5222686;28;20060;-70
2023/01/10 01:59:47;;;;;;;13.43;6.00;;;;;;;4.32;100.00;101318.59;5216540;28;20159;-70
2023/01/10 02:02:24;;;;;;;19.73;5.13;;;;;;;4.29;100.00;101307.44;5216257;28;20495;-70
2023/01/10 02:05:02;;;;;;;15.47;4.93;;;;;;;4.40;100.00;101317.53;5232925;28;20049;-70
2023/01/10 02:07:36;;;;;;;14.67;5.30;;;;;;;4.38;100.00;101319.31;5234107;28;20037;-70
2023/01/10 02:10:31;;;;;;;17.40;4.60;;;;;;;4.42;100.00;101326.13;5287566;22;20049;-69
2023/01/10 02:13:04;;;;;;;20.98;5.22;;;;;;;4.39;100.00;101321.00;5257057;28;20029;-69
2023/01/10 02:15:35;;;;;;;18.30;6.17;;;;;;;4.41;100.00;101329.63;5254545;28;20731;-69
2023/01/10 02:18:07;;;;;;;19.13;5.70;;;;;;;4.38;100.00;101340.06;5253027;28;20021;-69
2023/01/10 02:21:10;;;;;;;17.73;5.67;;;;;;;4.43;100.00;101338.22;5252693;28;20534;-69
2023/01/10 02:24:06;;;;;;;19.33;5.33;;;;;;;4.39;100.00;101331.38;5233435;28;20040;-69
2023/01/10 02:27:05;;;;;;;15.67;4.70;;;;;;;4.38;100.00;101340.06;5251207;28;20048;-69
2023/01/10 02:29:42;;;;;;;20.50;4.47;;;;;;;4.37;100.00;101328.84;5232305;28;20036;-69
2023/01/10 02:32:25;;;;;;;14.03;3.87;;;;;;;4.36;100.00;101338.34;5239499;28;20110;-70
2023/01/10 02:35:03;;;;;;;18.10;4.40;;;;;;;4.29;100.00;101316.09;5254821;28;20106;-69
2023/01/10 02:37:50;;;;;;;14.63;4.10;;;;;;;4.35;100.00;101323.69;5252132;28;20429;-70
2023/01/10 02:40:40;;;;;;;14.80;4.30;;;;;;;4.34;100.00;101324.59;5253359;28;20043;-69
2023/01/10 02:43:17;;;;;;;23.43;4.27;;;;;;;4.34;100.00;101332.38;5249867;28;20037;-70
2023/01/10 02:46:06;;;;;;;20.97;6.07;;;;;;;4.35;100.00;101331.47;5253383;28;20024;-70
2023/01/10 02:48:37;;;;;;;20.87;4.67;;;;;;;4.33;100.00;101327.19;5247944;28;20029;-70
2023/01/10 02:51:21;;;;;;;17.40;3.87;;;;;;;4.26;100.00;101331.69;5246288;28;20056;-70
2023/01/10 02:54:08;;;;;;;13.33;3.80;;;;;;;4.30;100.00;101342.84;5252082;28;20025;-70
2023/01/10 02:56:55;;;;;;;16.70;4.47;;;;;;;4.26;100.00;101343.84;5253457;28;20479;-70
2023/01/10 02:59:45;;;;;;;22.37;4.10;;;;;;;4.25;100.00;101345.56;5252567;28;20033;-71
2023/01/10 03:03:01;;;;;;;19.37;4.30;;;;;;;4.26;100.00;101349.84;5253334;28;20029;-70
2023/01/10 03:05:53;;;;;;;15.43;4.15;;;;;;;4.23;100.00;101355.97;5254204;28;20511;-70
2023/01/10 03:08:49;;;;;;;18.27;4.67;;;;;;;4.16;100.00;101359.59;5253301;28;20498;-70
2023/01/10 03:11:38;;;;;;;16.57;5.13;;;;;;;4.09;100.00;101356.31;5253498;28;20040;-70
2023/01/10 03:14:23;;;;;;;26.60;5.53;;;;;;;4.15;100.00;101372.59;5235712;28;20437;-70
2023/01/10 03:17:01;;;;;;;18.48;4.10;;;;;;;4.10;100.00;101373.56;5253216;28;20135;-70
2023/01/10 03:19:48;;;;;;;16.30;4.07;;;;;;;4.14;100.00;101379.53;5247321;28;20112;-70
2023/01/10 03:22:20;;;;;;;17.43;4.90;;;;;;;4.11;100.00;101395.16;5244257;28;20468;-70
2023/01/10 03:24:54;;;;;;;15.47;3.83;;;;;;;4.12;100.00;101404.63;5253923;28;20060;-70
2023/01/10 03:27:41;;;;;;;15.05;4.63;;;;;;;4.13;100.00;101401.16;5253560;28;20025;-70
2023/01/10 03:30:40;;;;;;;18.77;4.17;;;;;;;4.17;100.00;101394.16;5253358;28;20032;-69
2023/01/10 03:33:14;;;;;;;21.63;4.83;;;;;;;4.15;100.00;101395.94;5236523;28;20029;-70
2023/01/10 03:36:17;;;;;;;18.30;4.68;;;;;;;4.20;100.00;101407.06;5244881;28;20053;-70
2023/01/10 03:38:56;;;;;;;14.27;4.00;;;;;;;4.20;100.00;101404.47;5236385;28;20399;-70
2023/01/10 03:41:40;;;;;;;17.90;4.10;;;;;;;4.23;100.00;101409.56;5250231;28;20529;-70
2023/01/10 03:47:21;;;;;;;18.50;4.40;;;;;;;4.24;100.00;101416.47;5252687;28;20028;-70
2023/01/10 03:50:05;;;;;;;16.20;4.10;;;;;;;4.21;100.00;101416.53;5250239;28;20039;-70
2023/01/10 03:52:40;;;;;;;23.37;5.13;;;;;;;4.17;100.00;101409.72;5248830;28;20383;-69
2023/01/10 03:55:17;;;;;;;23.53;4.63;;;;;;;4.23;100.00;101425.13;5252171;28;20021;-70
2023/01/10 03:57:48;;;;;;;17.43;4.10;;;;;;;4.28;100.00;101428.47;5253016;28;20021;-70
2023/01/10 04:00:20;;;;;;;15.37;4.43;;;;;;;4.24;100.00;101427.69;5253653;28;20036;-70
2023/01/10 04:02:51;;;;;;;23.73;5.07;;;;;;;4.29;100.00;101439.69;5252285;28;20036;-70
2023/01/10 04:05:22;;;;;;;20.77;4.20;;;;;;;4.18;100.00;101426.97;5254025;28;20398;-69
2023/01/10 04:07:54;;;;;;;28.27;5.57;;;;;;;4.27;100.00;101447.50;5254269;28;20130;-70
2023/01/10 04:10:26;;;;;;;21.27;5.40;;;;;;;4.20;100.00;101432.97;5253746;28;20047;-70
2023/01/10 04:13:01;;;;;;;25.60;5.10;;;;;;;4.32;100.00;101453.44;5253937;28;20033;-70
2023/01/10 04:15:32;;;;;;;19.67;4.03;;;;;;;4.33;100.00;101452.53;5254925;28;20044;-70
2023/01/10 04:18:04;;;;;;;18.67;4.27;;;;;;;4.33;100.00;101459.47;5256890;28;20060;-70
2023/01/10 04:20:35;;;;;;;20.27;4.00;;;;;;;4.33;100.00;101468.09;5257856;28;20406;-70
2023/01/10 04:23:06;;;;;;;24.93;4.87;;;;;;;4.34;100.00;101467.22;5257066;28;20021;-70
2023/01/10 04:25:38;;;;;;;24.17;4.73;;;;;;;4.33;100.00;101464.66;5254625;28;20033;-70
2023/01/10 04:28:09;;;;;;;22.63;5.47;;;;;;;4.35;100.00;101474.13;5244197;28;20103;-69
2023/01/10 04:30:40;;;;;;;19.50;4.30;;;;;;;4.21;100.00;101455.41;5256226;28;20104;-70
2023/01/10 04:33:12;;;;;;;17.63;4.47;;;;;;;4.33;100.00;101462.91;5254836;28;20025;-71
2023/01/10 04:35:48;;;;;;;22.67;5.13;;;;;;;4.36;100.00;101468.03;5257013;28;20602;-70
2023/01/10 04:38:19;;;;;;;26.27;5.47;;;;;;;4.36;100.00;101459.41;5256745;28;20029;-70
2023/01/10 04:40:55;;;;;;;31.93;4.67;;;;;;;4.40;100.00;101462.78;5256104;28;20083;-69
2023/01/10 04:43:26;;;;;;;25.20;4.50;;;;;;;4.37;100.00;101458.50;5254827;28;20112;-70
2023/01/10 04:45:58;;;;;;;25.10;5.97;;;;;;;4.38;100.00;101444.66;5256363;28;20099;-70
2023/01/10 04:48:29;;;;;;;25.83;4.83;;;;;;;4.32;100.00;101461.22;5255273;28;20052;-70
2023/01/10 04:51:00;;;;;;;22.63;4.53;;;;;;;4.24;100.00;101458.78;5249526;28;20040;-70
2023/01/10 04:53:32;;;;;;;26.87;5.03;;;;;;;4.37;100.00;101487.03;5253340;28;20047;-70
2023/01/10 04:56:08;;;;;;;29.03;6.00;;;;;;;4.36;100.00;101488.78;5254279;28;20053;-70
2023/01/10 04:58:39;;;;;;;22.07;4.83;;;;;;;4.37;100.00;101479.25;5243444;28;20033;-70
2023/01/10 05:01:16;;;;;;;26.23;6.20;;;;;;;4.38;100.00;101475.78;5255899;28;20017;-70
2023/01/10 05:03:52;;;;;;;22.30;4.20;;;;;;;4.33;100.00;101457.72;5256343;28;20017;-69
2023/01/10 05:06:24;;;;;;;22.50;4.93;;;;;;;4.37;100.00;101468.88;5255559;28;20498;-70
2023/01/10 05:08:56;;;;;;;28.37;6.40;;;;;;;4.36;100.00;101478.41;5257285;28;20120;-70
2023/01/10 05:11:27;;;;;;;26.30;5.90;;;;;;;4.30;100.00;101478.56;5256160;28;20047;-70
2023/01/10 05:13:59;;;;;;;22.90;4.97;;;;;;;4.34;100.00;101492.31;5256566;28;20021;-70
2023/01/10 05:16:30;;;;;;;26.40;5.23;;;;;;;4.34;100.00;101508.72;5256496;28;20103;-70
2023/01/10 05:19:01;;;;;;;25.07;5.50;;;;;;;4.30;100.00;101520.06;5255482;28;20032;-70
2023/01/10 05:21:33;;;;;;;26.33;5.73;;;;;;;4.36;100.00;101532.88;5254503;28;20399;-70
2023/01/10 05:24:04;;;;;;;22.47;4.87;;;;;;;4.35;100.00;101538.94;5246873;28;20021;-70
2023/01/10 05:26:36;;;;;;;28.47;5.63;;;;;;;4.32;100.00;101520.88;5249748;28;20063;-70
2023/01/10 05:29:09;;;;;;;30.37;5.27;;;;;;;4.28;100.00;101521.81;5255007;28;20017;-70
2023/01/10 05:31:41;;;;;;;25.70;6.20;;;;;;;4.39;100.00;101544.94;5254842;28;20025;-70
2023/01/10 05:34:12;;;;;;;26.27;5.03;;;;;;;4.39;100.00;101549.25;5254506;28;20086;-70
2023/01/10 05:36:43;;;;;;;23.83;6.27;;;;;;;4.41;100.00;101537.09;5255835;28;20035;-70
2023/01/10 05:39:15;;;;;;;31.47;5.93;;;;;;;4.38;100.00;101534.59;5255867;28;20032;-70
2023/01/10 05:41:46;;;;;;;22.50;4.60;;;;;;;4.30;100.00;101527.81;5254814;28;20096;-70
2023/01/10 05:44:18;;;;;;;29.20;5.50;;;;;;;4.36;100.00;101535.47;5255089;28;20143;-70
2023/01/10 05:46:49;;;;;;;33.93;6.23;;;;;;;4.39;100.00;101544.94;5256358;28;20475;-70
2023/01/10 05:49:20;;;;;;;22.23;5.57;;;;;;;4.40;100.00;101550.97;5254330;28;20513;-69
2023/01/10 05:51:51;;;;;;;21.63;5.50;;;;;;;4.38;100.00;101552.75;5246257;28;20099;-70
2023/01/10 05:54:23;;;;;;;28.60;5.70;;;;;;;4.43;100.00;101553.50;5247499;28;20029;-69
2023/01/10 05:56:54;;;;;;;27.27;5.50;;;;;;;4.17;100.00;101518.63;5247320;28;20082;-70
2023/01/10 05:59:25;;;;;;;27.37;5.40;;;;;;;4.40;100.00;101562.19;5247218;28;20067;-70
2023/01/10 06:01:57;;;;;;;27.03;5.20;;;;;;;4.43;100.00;101571.66;5247244;28;20044;-70
2023/01/10 06:04:28;;;;;;;25.97;5.47;;;;;;;4.36;100.00;101561.41;5245970;28;20029;-70
2023/01/10 06:06:59;;;;;;;34.10;6.17;;;;;;;4.41;100.00;101563.91;5247295;28;20041;-70
2023/01/10 06:09:31;;;;;;;32.17;5.87;;;;;;;4.26;100.00;101539.16;5245755;28;20182;-70
2023/01/10 06:12:02;;;;;;;29.13;5.47;;;;;;;4.42;100.00;101572.53;5248029;28;20047;-71
2023/01/10 06:14:34;;;;;;;27.43;6.20;;;;;;;4.30;100.00;101556.34;5247928;28;20564;-72
2023/01/10 06:17:08;;;;;;;32.90;6.67;;;;;;;4.17;100.00;101524.63;5245982;28;20414;-69
2023/01/10 06:19:40;;;;;;;;;;;;;;;4.50;100.00;101562.00;5247954;28;20033;-70
2023/01/10 06:22:11;;;;;;;34.77;6.87;;;;;;;4.41;100.00;101569.09;5245061;28;19923;-70
2023/01/10 06:24:42;;;;;;;30.90;6.20;;;;;;;4.36;100.00;101565.75;5245708;28;20053;-70
2023/01/10 06:27:14;;;;;;;34.50;6.20;;;;;;;4.33;100.00;101561.47;5245190;28;20036;-70
2023/01/10 06:29:45;;;;;;;25.10;5.23;;;;;;;4.40;100.00;101577.75;5243136;28;20041;-70
2023/01/10 06:32:16;;;;;;;24.57;5.13;;;;;;;4.40;100.00;101587.28;5243411;28;20041;-69
2023/01/10 06:34:48;;;;;;;23.87;5.43;;;;;;;4.37;100.00;101575.22;5244537;28;20922;-70
2023/01/10 06:37:19;;;;;;;24.50;5.93;;;;;;;4.42;100.00;101590.69;5244065;28;20025;-70
2023/01/10 06:39:50;;;;;;;29.60;6.23;;;;;;;4.33;100.00;101577.03;5244125;28;20048;-69
2023/01/10 06:42:22;;;;;;;24.30;6.63;;;;;;;4.39;100.00;101585.56;5245870;28;20037;-69
2023/01/10 06:44:53;;;;;;;25.53;5.37;;;;;;;4.32;100.00;101582.25;5245540;28;20036;-71
2023/01/10 06:47:24;;;;;;;21.63;5.17;;;;;;;4.30;100.00;101592.66;5244757;28;20407;-71
2023/01/10 06:49:55;;;;;;;30.90;5.67;;;;;;;4.24;100.00;101593.63;5244594;28;20083;-70
2023/01/10 06:52:27;;;;;;;27.10;6.80;;;;;;;4.29;100.00;101595.28;5244071;28;20454;-69
2023/01/10 06:54:58;;;;;;;24.67;5.03;;;;;;;4.24;100.00;101601.41;5239280;28;20395;-70
2023/01/10 06:57:32;;;;;;;25.63;5.70;;;;;;;4.18;100.00;101608.47;5238969;28;20116;-69
2023/01/10 07:00:06;;;;;;;37.03;6.40;;;;;;;4.07;100.00;101606.94;5240876;28;20403;-70
2023/01/10 07:02:37;;;;;;;24.40;5.63;;;;;;;4.15;100.00;101619.78;5258899;28;20476;-71
2023/01/10 07:05:09;;;;;;;28.87;6.00;;;;;;;4.14;100.00;101620.63;5245464;28;20040;-70
2023/01/10 07:07:40;;;;;;;35.97;6.47;;;;;;;4.10;100.00;101635.41;5243447;28;20485;-71
2023/01/10 07:10:11;;;;;;;32.30;6.43;;;;;;;4.08;100.00;101636.34;5242056;28;20107;-70
2023/01/10 07:12:43;;;;;;;29.00;5.47;;;;;;;4.05;100.00;101639.81;5243036;28;20033;-71
2023/01/10 07:15:14;;;;;;;24.37;4.80;;;;;;;4.05;100.00;101645.00;5241280;28;20033;-71
2023/01/10 07:17:45;;;;;;;34.20;6.70;;;;;;;4.04;100.00;101653.69;5238219;28;20609;-70
2023/01/10 07:20:17;;;;;;;21.87;5.67;;;;;;;3.97;100.00;101639.13;5239643;28;20068;-71
2023/01/10 07:22:58;;;;;;;21.87;5.77;;;;;;;3.92;100.00;101628.00;5240971;28;20073;-71
2023/01/10 07:25:30;;;;;;;27.57;6.47;;;;;;;3.91;100.00;101647.03;5239894;28;20057;-70
2023/01/10 07:28:01;;;;;;;23.80;5.47;;;;;;;4.01;100.00;101658.94;5240121;28;20049;-71
2023/01/10 07:30:32;;;;;;;21.20;5.40;;;;;;;4.03;100.00;101666.69;5237142;28;20128;-70
2023/01/10 07:33:05;;;;;;;29.80;4.20;;;;;;;4.00;100.00;101667.56;5238071;28;20040;-71
2023/01/10 07:35:36;;;;;;;23.90;5.93;;;;;;;4.04;100.00;101679.59;5238661;28;20124;-71
2023/01/10 07:38:08;;;;;;;18.77;5.10;;;;;;;3.75;100.00;101640.38;5236600;28;20437;-70
2023/01/10 07:40:39;;;;;;;24.93;5.70;;;;;;;4.00;100.00;101690.91;5241634;28;20083;-71
2023/01/10 07:43:10;;;;;;;28.30;5.93;;;;;;;3.99;100.00;101699.56;5237774;28;20049;-70
2023/01/10 07:45:42;;;;;;;32.17;7.13;;;;;;;4.01;100.00;101682.25;5238913;28;20079;-78
2023/01/10 07:48:13;;;;;;;32.90;7.47;;;;;;;4.02;100.00;101701.25;5246906;28;20053;-76
2023/01/10 07:50:45;;;;;;;24.90;6.17;;;;;;;3.96;100.00;101697.88;5251638;28;20533;-77
2023/01/10 07:53:16;;;;;;;21.63;5.17;;;;;;;3.90;100.00;101685.03;5254030;28;20025;-78
2023/01/10 07:55:47;;;;;;;27.57;5.13;;;;;;;3.88;100.00;101691.97;5255095;28;20021;-73
2023/01/10 07:58:19;;;;;;;24.53;5.30;;;;;;;3.95;100.00;101700.50;5253818;28;20064;-77
2023/01/10 08:00:50;;;;;;;35.97;6.70;;;;;;;3.98;100.00;101705.63;5254600;28;20400;-72
2023/01/10 08:03:23;;;;;;;31.03;6.57;;;;;;;3.96;100.00;101704.81;5253680;28;20021;-76
2023/01/10 08:05:59;;;;;;;33.83;7.40;;;;;;;3.95;100.00;101713.47;5252833;28;20036;-74
2023/01/10 08:08:32;;;;;;;24.27;5.47;;;;;;;3.94;100.00;101704.00;5253314;28;20464;-74
2023/01/10 08:11:04;;;;;;;25.13;7.20;;;;;;;3.89;100.00;101700.63;5252640;28;20102;-76
2023/01/10 08:13:35;;;;;;;25.70;4.53;;;;;;;3.86;100.00;101697.19;5254472;28;20095;-70
2023/01/10 08:16:07;;;;;;;24.73;5.77;;;;;;;3.88;100.00;101699.75;5253524;28;20070;-74
2023/01/10 08:18:41;;;;;;;22.43;6.07;;;;;;;3.82;100.00;101695.53;5253220;28;20049;-77
2023/01/10 08:21:12;;;;;;;31.10;6.70;;;;;;;3.81;100.00;101688.66;5253100;28;20263;-74
2023/01/10 08:23:43;;;;;;;37.27;5.57;;;;;;;3.87;100.00;101693.72;5255536;28;20029;-70
2023/01/10 08:26:15;;;;;;;31.37;6.83;;;;;;;3.88;100.00;101699.75;5273053;28;20240;-77
2023/01/10 08:28:46;;;;;;;22.00;5.37;;;;;;;3.88;100.00;101702.34;5274742;28;20020;-74
2023/01/10 08:31:17;;;;;;;32.10;7.77;;;;;;;3.87;100.00;101690.28;5264065;28;20021;-76
2023/01/10 08:33:49;;;;;;;26.63;7.27;;;;;;;3.91;100.00;101714.41;5252351;28;20032;-74
2023/01/10 08:36:21;;;;;;;26.47;5.23;;;;;;;3.92;100.00;101710.94;5253504;28;20033;-73
2023/01/10 08:38:54;;;;;;;27.67;6.43;;;;;;;3.86;100.00;101698.94;5258121;28;20036;-73
2023/01/10 08:41:25;;;;;;;25.40;5.60;;;;;;;3.87;100.00;101693.72;5255203;28;20029;-76
2023/01/10 08:43:56;;;;;;;25.77;5.67;;;;;;;3.96;100.00;101704.81;5252906;28;20048;-76
2023/01/10 08:46:28;;;;;;;25.60;5.00;;;;;;;3.96;100.00;101702.22;5251287;28;20124;-75
2023/01/10 08:48:59;;;;;;;30.60;6.03;;;;;;;4.00;100.00;101703.88;5252558;28;20045;-72
2023/01/10 08:51:30;;;;;;;25.23;6.00;;;;;;;4.01;100.00;101700.41;5251846;28;20033;-71
2023/01/10 08:54:02;;;;;;;24.47;4.23;;;;;;;4.05;100.00;101696.03;5251885;28;20033;-76
2023/01/10 08:56:35;;;;;;;27.67;5.77;;;;;;;4.06;100.00;101706.38;5267679;28;20028;-72
2023/01/10 08:59:07;;;;;;;29.90;5.67;;;;;;;4.02;100.00;101686.56;5251176;28;20024;-72
2023/01/10 09:01:38;;;;;;;30.47;5.83;;;;;;;4.09;100.00;101697.66;5250783;28;20521;-81
2023/01/10 09:04:10;;;;;;;20.23;6.23;;;;;;;4.11;100.00;101691.56;5250879;28;20033;-72
2023/01/10 09:06:41;;;;;;;23.67;4.90;;;;;;;4.12;100.00;101692.41;5249496;28;20025;-76
2023/01/10 09:09:13;;;;;;;25.63;5.13;;;;;;;4.06;100.00;101671.78;5258505;28;20040;-73
2023/01/10 09:11:44;;;;;;;17.63;4.57;;;;;;;4.19;100.00;101688.00;5273612;28;20029;-79
2023/01/10 09:14:15;;;;;;;30.10;6.53;;;;;;;4.20;100.00;101687.09;5268225;28;20059;-71
2023/01/10 09:16:50;;;;;;;21.77;5.43;;;;;;;4.23;100.00;101681.84;5255809;28;20040;-75
2023/01/10 09:19:21;;;;;;;;;;;;;;;4.33;100.00;101685.97;5256135;28;20041;-72
2023/01/10 09:21:52;;;;;;;27.77;6.60;;;;;;;4.28;100.00;101685.19;5255815;28;19919;-73
2023/01/10 09:24:24;;;;;;;26.13;6.00;;;;;;;4.30;100.00;101690.34;5254952;28;20028;-73
2023/01/10 09:26:55;;;;;;;26.93;7.23;;;;;;;4.29;100.00;101686.91;5256421;28;20028;-74
2023/01/10 09:29:26;;;;;;;26.30;5.47;;;;;;;4.33;100.00;101691.16;5256041;28;20024;-77
2023/01/10 09:31:57;;;;;;;22.23;5.10;;;;;;;4.28;100.00;101682.59;5254605;28;20025;-73
2023/01/10 09:34:29;;;;;;;26.67;4.87;;;;;;;4.34;100.00;101684.22;5255813;28;20029;-73
2023/01/10 09:37:00;;;;;;;23.07;4.90;;;;;;;4.28;100.00;101677.41;5255624;28;20028;-76
2023/01/10 09:39:32;;;;;;;20.83;4.43;;;;;;;4.35;100.00;101688.50;5254444;28;20029;-73
2023/01/10 09:42:04;;;;;;;29.87;6.30;;;;;;;4.36;100.00;101685.06;5255559;28;20467;-75
2023/01/10 09:44:55;;;;;;;23.47;4.87;;;;;;;4.41;100.00;101680.63;5255153;28;20037;-74
2023/01/10 09:47:36;;;;;;;27.53;6.50;;;;;;;4.30;100.00;101660.09;5254136;28;20040;-75
2023/01/10 09:50:16;;;;;;;26.63;5.53;;;;;;;4.48;100.00;101683.94;5255751;28;20024;-72
2023/01/10 09:53:26;;;;;;;21.90;4.30;;;;;;;4.55;100.00;101695.91;5254832;28;20025;-73
2023/01/10 09:55:59;;;;;;;21.20;6.40;;;;;;;4.56;100.00;101676.84;5230802;28;20037;-75
2023/01/10 09:58:33;;;;;;;24.50;4.50;;;;;;;4.60;100.00;101675.06;5251572;28;20041;-76
2023/01/10 10:01:09;;;;;;;24.95;5.07;;;;;;;4.64;100.00;101678.44;5255404;28;20152;-77
2023/01/10 10:03:53;;;;;;;25.70;5.70;;;;;;;4.67;100.00;101674.03;5252289;28;20029;-79
2023/01/10 10:06:24;;;;;;;22.80;5.70;;;;;;;4.66;100.00;101679.25;5252058;28;20131;-76
2023/01/10 10:08:56;;;;;;;20.60;4.37;;;;;;;4.73;100.00;101688.59;5250344;28;20590;-79
2023/01/10 10:11:46;;;;;;;27.60;5.33;;;;;;;4.74;100.00;101669.56;5252170;28;20025;-76
2023/01/10 10:14:37;;;;;;;26.83;5.97;;;;;;;4.77;100.00;101664.31;5251422;28;20032;-79
2023/01/10 10:17:34;;;;;;;18.93;5.07;;;;;;;4.84;100.00;101673.66;5250156;28;20048;-80
2023/01/10 10:20:20;;;;;;;23.03;4.57;;;;;;;4.87;100.00;101661.50;5251472;28;20029;-81
2023/01/10 10:23:00;;;;;;;23.83;5.73;;;;;;;4.89;100.00;101667.50;5251559;28;20341;-73
2023/01/10 10:25:47;;;;;;;27.50;5.10;;;;;;;4.90;100.00;101658.84;5249244;28;20283;-77
2023/01/10 10:28:36;;;;;;;27.37;7.77;;;;;;;4.92;100.00;101655.31;5251691;28;20024;-78
2023/01/10 10:31:24;;;;;;;24.10;4.87;;;;;;;4.96;100.00;101662.16;5250818;28;20033;-79
2023/01/10 10:34:37;;;;;;;27.07;4.70;;;;;;;5.01;100.00;101654.25;5250772;28;20236;-70
2023/01/10 10:37:20;;;;;;;20.30;5.07;;;;;;;5.02;100.00;101650.78;5246419;28;20131;-80
2023/01/10 10:39:56;;;;;;;24.20;5.20;;;;;;;5.01;100.00;101645.63;5251840;28;20560;-76
2023/01/10 10:42:32;;;;;;;26.10;6.03;;;;;;;5.01;100.00;101636.06;5250788;28;20379;-81
2023/01/10 10:45:06;;;;;;;22.97;4.57;;;;;;;5.08;100.00;101626.38;5251046;28;20025;-80
2023/01/10 10:47:41;;;;;;;20.20;5.63;;;;;;;5.11;100.00;101615.94;5250396;28;20025;-75
2023/01/10 10:50:33;;;;;;;16.07;4.50;;;;;;;5.16;100.00;101623.63;5251539;28;20108;-78
2023/01/10 10:53:05;;;;;;;18.33;5.43;;;;;;;5.16;100.00;101613.22;5266357;28;20025;-80
2023/01/10 10:55:37;;;;;;;24.50;4.53;;;;;;;5.20;100.00;101609.69;5251666;28;20468;-79
2023/01/10 10:58:10;;;;;;;19.87;4.90;;;;;;;5.22;100.00;101613.06;5250979;28;20451;-76
2023/01/10 11:00:42;;;;;;;24.38;5.28;;;;;;;5.23;100.00;101607.00;5251514;28;20052;-80
2023/01/10 11:03:28;;;;;;;18.00;5.23;;;;;;;5.29;100.00;101606.84;5248762;28;20335;-75
2023/01/10 11:06:00;;;;;;;20.93;4.73;;;;;;;5.29;100.00;101595.59;5251787;28;20057;-78
2023/01/10 11:08:37;;;;;;;22.97;5.20;;;;;;;5.32;100.00;101593.75;5249645;28;20735;-73
2023/01/10 11:11:26;;;;;;;19.23;6.43;;;;;;;5.39;100.00;101593.63;5250774;28;20527;-79
2023/01/10 11:14:01;;;;;;;25.07;5.67;;;;;;;5.40;100.00;101579.72;5250951;28;20033;-75
2023/01/10 11:16:35;;;;;;;;;;;;;;;5.47;100.00;101578.69;5250741;28;20367;-79
2023/01/10 11:19:24;;;;;;;26.83;6.10;;;;;;;5.46;100.00;101574.38;5250119;28;19912;-73
2023/01/10 11:21:59;;;;;;;23.57;7.67;;;;;;;5.42;100.00;101575.34;5251233;28;20040;-73
2023/01/10 11:24:37;;;;;;;21.27;5.83;;;;;;;5.45;100.00;101572.66;5250625;28;20029;-79
2023/01/10 11:27:17;;;;;;;21.20;5.40;;;;;;;5.45;100.00;101567.47;5254288;28;20056;-72
2023/01/10 11:29:51;;;;;;;27.50;6.90;;;;;;;5.51;100.00;101579.44;5254832;28;20025;-73
2023/01/10 11:32:31;;;;;;;26.33;7.78;;;;;;;5.56;100.00;101574.97;5254782;28;20534;-81
2023/01/10 11:35:27;;;;;;;23.27;5.40;;;;;;;5.59;100.00;101576.63;5255318;28;20031;-78
2023/01/10 11:38:18;;;;;;;33.40;7.33;;;;;;;5.57;100.00;101572.34;5255197;28;20047;-77
2023/01/10 11:41:00;;;;;;;26.03;6.00;;;;;;;5.63;100.00;101573.06;5255410;28;20072;-80
2023/01/10 11:43:34;;;;;;;29.17;6.43;;;;;;;5.61;100.00;101572.25;5253432;28;20033;-73
2023/01/10 11:46:14;;;;;;;23.05;5.50;;;;;;;5.64;100.00;101566.97;5252570;28;20108;-80
2023/01/10 11:49:03;;;;;;;25.77;7.47;;;;;;;5.66;100.00;101563.44;5255111;28;20033;-77
2023/01/10 11:51:46;;;;;;;22.93;5.97;;;;;;;5.68;100.00;101566.84;5254200;28;20029;-79
2023/01/10 11:54:22;;;;;;;24.33;5.67;;;;;;;5.71;100.00;101558.09;5255299;28;20052;-81
2023/01/10 11:57:07;;;;;;;19.53;4.93;;;;;;;5.69;100.00;101549.50;5254522;28;20551;-78
2023/01/10 11:59:39;;;;;;;23.50;5.43;;;;;;;5.73;100.00;101561.53;5254570;28;20021;-73
2023/01/10 12:02:21;;;;;;;22.40;6.17;;;;;;;5.75;100.00;101553.69;5253217;28;20044;-77
2023/01/10 12:04:57;;;;;;;22.93;5.53;;;;;;;5.76;100.00;101556.22;5254956;28;20021;-75